ExpreSS Skopelitis — SW3130 — position and weather

sailwx.info

Track history (hours):
 
Tides and Currents Weather Stations Pressure Air Temp Water Temp Dewpoint Dewpoint Depression Visibility Wind Speed Wind Dir Waves Ship Positions

ExpreSS Skopelitis

Last reported at 2014-Sep-19 07:33 UTC. Time now 2014-Sep-19 07:55 UTC.
Position N 37°04' E 025°20'.

Length 45 m; draft 2.4 m.

Type: Passenger vessel. MMSI: 237029400.

Date/timePositionNaut miles runAvg speedWind from/ knotsBaromVisibWave heightAir tempDewpointWater temp
2014-Sep-19 07:33N 37°04' E 025°20'1212.0
2014-Sep-19 06:33N 36°54' E 025°27'6 6.4
2014-Sep-19 05:33N 36°55' E 025°35'9 9.3
2014-Sep-19 04:33N 36°52' E 025°46'1 0.1
2014-Sep-18 14:33N 36°51' E 025°46'10 9.5
2014-Sep-18 13:33N 36°55' E 025°35'6 6.1
2014-Sep-18 12:31N 36°53' E 025°28'1212.1
2014-Sep-18 11:33N 37°03' E 025°20'4 4.1
2014-Sep-18 10:33N 37°06' E 025°22'0 0.0
2014-Sep-18 09:33N 37°06' E 025°22'0 0.0
2014-Sep-18 08:33N 37°06' E 025°22'3 3.1
2014-Sep-18 07:33N 37°04' E 025°20'1211.9
2014-Sep-18 06:33N 36°53' E 025°27'6 6.2
2014-Sep-18 05:33N 36°55' E 025°35'9 9.3
2014-Sep-18 04:33N 36°52' E 025°46'6 0.5
2014-Sep-17 17:23N 36°50' E 025°52'7 7.9
2014-Sep-17 16:32N 36°54' E 025°58'1110.0
2014-Sep-17 15:24N 37°03' E 025°50'4 5.2
2014-Sep-17 14:33N 37°02' E 025°44'9 9.3
2014-Sep-17 13:33N 36°56' E 025°36'7 7.0
2014-Sep-17 12:33N 36°52' E 025°28'1111.2
2014-Sep-17 11:33N 37°01' E 025°21'5 5.1
2014-Sep-17 10:33N 37°06' E 025°22'0 0.0
2014-Sep-17 09:33N 37°06' E 025°22'5 5.2
2014-Sep-17 08:32N 37°01' E 025°21'1210.3
2014-Sep-17 07:24N 36°52' E 025°30'6 7.5
2014-Sep-17 06:34N 36°56' E 025°37'1312.3
2014-Sep-17 05:33N 37°05' E 025°47'9 9.1
2014-Sep-17 04:33N 36°58' E 025°54'6 6.4
2014-Sep-17 03:33N 36°52' E 025°53'3 0.7
2014-Sep-16 23:32N 36°50' E 025°52'0 0.0
2014-Sep-16 21:32N 36°50' E 025°52'0 0.0
2014-Sep-16 20:30N 36°50' E 025°52'0 0.0
2014-Sep-16 19:26N 36°50' E 025°52'3 0.6
2014-Sep-16 14:33N 36°51' E 025°48'1110.9
2014-Sep-16 13:33N 36°56' E 025°36'7 7.4
2014-Sep-16 12:33N 36°52' E 025°28'1211.6
2014-Sep-16 11:33N 37°02' E 025°21'5 4.7
2014-Sep-16 10:33N 37°06' E 025°22'0 0.0
2014-Sep-16 09:33N 37°06' E 025°22'0 0.0
2014-Sep-16 08:33N 37°06' E 025°22'3 3.1
2014-Sep-16 07:33N 37°04' E 025°20'1211.9
2014-Sep-16 06:33N 36°53' E 025°28'6 6.1
2014-Sep-16 05:33N 36°55' E 025°35'10 9.8
2014-Sep-16 04:33N 36°52' E 025°46'5 0.4
2014-Sep-15 17:13N 36°50' E 025°52'5 7.0
2014-Sep-15 16:33N 36°53' E 025°56'8 8.2
2014-Sep-15 15:33N 37°00' E 025°52'6 5.8
2014-Sep-15 14:33N 37°03' E 025°45'1010.1
2014-Sep-15 13:33N 36°56' E 025°36'7 7.4
2014-Sep-15 12:33N 36°52' E 025°28'1211.7
2014-Sep-15 11:33N 37°02' E 025°21'5 4.5
2014-Sep-15 10:33N 37°06' E 025°22'0 0.0
2014-Sep-15 09:33N 37°06' E 025°22'7 7.4
2014-Sep-15 08:33N 36°59' E 025°23'9 9.3
2014-Sep-15 07:33N 36°52' E 025°31'6 5.7
2014-Sep-15 06:33N 36°56' E 025°36'1212.1
2014-Sep-15 05:33N 37°05' E 025°46'8 7.8
2014-Sep-15 04:33N 36°59' E 025°54'7 7.0
2014-Sep-15 03:33N 36°52' E 025°54'3 0.5
2014-Sep-14 20:24N 36°50' E 025°52'0 0.0
2014-Sep-14 19:31N 36°50' E 025°52'1 0.1
2014-Sep-14 13:33N 36°50' E 025°51'1211.7
2014-Sep-14 12:33N 36°51' E 025°37'1211.7
2014-Sep-14 11:33N 36°48' E 025°23'7 7.1
2014-Sep-14 10:33N 36°43' E 025°16'1110.5
2014-Sep-14 09:33N 36°33' E 025°20'1111.1
2014-Sep-14 08:33N 36°23' E 025°26'8 8.2
2014-Sep-14 07:33N 36°31' E 025°24'1212.1
2014-Sep-14 06:33N 36°41' E 025°34'1212.1
2014-Sep-14 05:33N 36°49' E 025°45'6 2.6
2014-Sep-14 03:20N 36°50' E 025°52'0 0.0
2014-Sep-13 19:05N 36°50' E 025°52'0 0.3
2014-Sep-13 17:33N 36°50' E 025°51'7 6.8
2014-Sep-13 16:33N 36°55' E 025°57'1212.3
2014-Sep-13 15:33N 37°05' E 025°48'6 6.0
2014-Sep-13 14:33N 37°01' E 025°43'9 9.4
2014-Sep-13 13:33N 36°55' E 025°34'5 5.0
2014-Sep-13 12:33N 36°53' E 025°28'1212.1
2014-Sep-13 11:33N 37°03' E 025°20'3 3.3
2014-Sep-13 10:33N 37°06' E 025°22'0 0.0
2014-Sep-13 09:33N 37°06' E 025°22'8 8.3
2014-Sep-13 08:33N 36°58' E 025°23'8 8.3
2014-Sep-13 07:33N 36°52' E 025°31'8 7.7
2014-Sep-13 06:33N 36°57' E 025°38'1211.9
2014-Sep-13 05:33N 37°06' E 025°48'10 9.8
2014-Sep-13 04:33N 36°58' E 025°55'6 5.6
2014-Sep-13 03:33N 36°52' E 025°54'3 0.5
2014-Sep-12 21:29N 36°50' E 025°52'0 0.0
2014-Sep-12 19:15N 36°50' E 025°52'0 0.0
2014-Sep-12 18:27N 36°50' E 025°52'0 0.0
2014-Sep-12 17:29N 36°50' E 025°52'5 1.6
2014-Sep-12 14:33N 36°52' E 025°46'1010.2
2014-Sep-12 13:33N 36°55' E 025°34'6 5.5
2014-Sep-12 12:33N 36°52' E 025°28'1212.0
2014-Sep-12 11:33N 37°03' E 025°21'4 4.0
2014-Sep-12 10:33N 37°06' E 025°22'0 0.0
2014-Sep-12 09:33N 37°06' E 025°22'0 0.0
2014-Sep-12 08:33N 37°06' E 025°22'3 2.7
2014-Sep-12 07:33N 37°05' E 025°20'1212.0
2014-Sep-12 06:33N 36°54' E 025°27'6 5.8
2014-Sep-12 05:33N 36°55' E 025°34'9 9.4
2014-Sep-12 04:33N 36°52' E 025°45'6 5.7
2014-Sep-12 03:32N 36°50' E 025°52'0 0.0
2014-Sep-11 22:31N 36°50' E 025°52'0 0.0
2014-Sep-11 18:28N 36°50' E 025°52'0 0.0
2014-Sep-11 17:07N 36°50' E 025°52'3 1.2
2014-Sep-11 14:33N 36°51' E 025°48'1111.0
2014-Sep-11 13:33N 36°56' E 025°36'7 7.5
2014-Sep-11 12:33N 36°52' E 025°28'1111.0
2014-Sep-11 11:33N 37°01' E 025°21'5 5.2
2014-Sep-11 10:33N 37°06' E 025°22'0 0.0
2014-Sep-11 09:33N 37°06' E 025°22'0 0.0
2014-Sep-11 08:33N 37°06' E 025°22'4 4.0
2014-Sep-11 07:33N 37°03' E 025°21'1211.8
2014-Sep-11 06:33N 36°53' E 025°28'7 6.5
2014-Sep-11 05:33N 36°56' E 025°36'10 9.7
2014-Sep-11 04:33N 36°52' E 025°47'5 2.3
2014-Sep-11 02:32N 36°50' E 025°52'0 0.0
2014-Sep-11 00:22N 36°50' E 025°52'0 0.0
2014-Sep-10 23:25N 36°50' E 025°52'0 0.0
2014-Sep-10 22:13N 36°50' E 025°52'0 0.0
2014-Sep-10 21:33N 36°50' E 025°52'0 0.0
2014-Sep-10 20:33N 36°50' E 025°52'0 0.0
2014-Sep-10 19:33N 36°50' E 025°52'0 0.0
2014-Sep-10 18:17N 36°50' E 025°52'0 0.0
2014-Sep-10 17:16N 36°50' E 025°52'6 7.7
2014-Sep-10 16:32N 36°53' E 025°57'9 8.9
2014-Sep-10 15:33N 37°01' E 025°51'5 5.0
2014-Sep-10 14:33N 37°03' E 025°45'1010.2
2014-Sep-10 13:33N 36°56' E 025°36'7 7.4
2014-Sep-10 12:33N 36°52' E 025°28'1111.0
2014-Sep-10 11:33N 37°01' E 025°21'5 5.1
2014-Sep-10 10:33N 37°06' E 025°22'0 0.0
2014-Sep-10 09:33N 37°06' E 025°22'5 4.7
2014-Sep-10 08:32N 37°02' E 025°21'1210.4
2014-Sep-10 07:22N 36°52' E 025°30'6 6.8
2014-Sep-10 06:29N 36°56' E 025°36'1112.3
2014-Sep-10 05:33N 37°04' E 025°46'8 7.9
2014-Sep-10 04:33N 36°59' E 025°54'7 7.1
2014-Sep-10 03:33N 36°52' E 025°54'5 0.4
2014-Sep-09 14:33N 36°51' E 025°47'1010.3
2014-Sep-09 13:33N 36°56' E 025°36'7 7.4
2014-Sep-09 12:33N 36°52' E 025°28'1111.3
2014-Sep-09 11:33N 37°02' E 025°21'5 4.9
2014-Sep-09 10:33N 37°06' E 025°22'0 0.0
2014-Sep-09 09:33N 37°06' E 025°22'0 0.0
2014-Sep-09 08:33N 37°06' E 025°22'  
Track history (hours):
 
Tides and Currents Weather Stations Pressure Air Temp Water Temp Dewpoint Dewpoint Depression Visibility Wind Speed Wind Dir Waves Ship Positions

ExpreSS Skopelitis

Last reported at 2014-Sep-19 07:33 UTC. Time now 2014-Sep-19 07:55 UTC.
Position N 37°04' E 025°20'.

Length 45 m; draft 2.4 m.

Type: Passenger vessel. MMSI: 237029400.

Date/timePositionNaut miles runAvg speedWind from/ knotsBaromVisibWave heightAir tempDewpointWater temp
2014-Sep-19 07:33N 37°04' E 025°20'1212.0
2014-Sep-19 06:33N 36°54' E 025°27'6 6.4
2014-Sep-19 05:33N 36°55' E 025°35'9 9.3
2014-Sep-19 04:33N 36°52' E 025°46'1 0.1
2014-Sep-18 14:33N 36°51' E 025°46'10 9.5
2014-Sep-18 13:33N 36°55' E 025°35'6 6.1
2014-Sep-18 12:31N 36°53' E 025°28'1212.1
2014-Sep-18 11:33N 37°03' E 025°20'4 4.1
2014-Sep-18 10:33N 37°06' E 025°22'0 0.0
2014-Sep-18 09:33N 37°06' E 025°22'0 0.0
2014-Sep-18 08:33N 37°06' E 025°22'3 3.1
2014-Sep-18 07:33N 37°04' E 025°20'1211.9
2014-Sep-18 06:33N 36°53' E 025°27'6 6.2
2014-Sep-18 05:33N 36°55' E 025°35'9 9.3
2014-Sep-18 04:33N 36°52' E 025°46'6 0.5
2014-Sep-17 17:23N 36°50' E 025°52'7 7.9
2014-Sep-17 16:32N 36°54' E 025°58'1110.0
2014-Sep-17 15:24N 37°03' E 025°50'4 5.2
2014-Sep-17 14:33N 37°02' E 025°44'9 9.3
2014-Sep-17 13:33N 36°56' E 025°36'7 7.0
2014-Sep-17 12:33N 36°52' E 025°28'1111.2
2014-Sep-17 11:33N 37°01' E 025°21'5 5.1
2014-Sep-17 10:33N 37°06' E 025°22'0 0.0
2014-Sep-17 09:33N 37°06' E 025°22'5 5.2
2014-Sep-17 08:32N 37°01' E 025°21'1210.3
2014-Sep-17 07:24N 36°52' E 025°30'6 7.5
2014-Sep-17 06:34N 36°56' E 025°37'1312.3
2014-Sep-17 05:33N 37°05' E 025°47'9 9.1
2014-Sep-17 04:33N 36°58' E 025°54'6 6.4
2014-Sep-17 03:33N 36°52' E 025°53'3 0.7
2014-Sep-16 23:32N 36°50' E 025°52'0 0.0
2014-Sep-16 21:32N 36°50' E 025°52'0 0.0
2014-Sep-16 20:30N 36°50' E 025°52'0 0.0
2014-Sep-16 19:26N 36°50' E 025°52'3 0.6
2014-Sep-16 14:33N 36°51' E 025°48'1110.9
2014-Sep-16 13:33N 36°56' E 025°36'7 7.4
2014-Sep-16 12:33N 36°52' E 025°28'1211.6
2014-Sep-16 11:33N 37°02' E 025°21'5 4.7
2014-Sep-16 10:33N 37°06' E 025°22'0 0.0
2014-Sep-16 09:33N 37°06' E 025°22'0 0.0
2014-Sep-16 08:33N 37°06' E 025°22'3 3.1
2014-Sep-16 07:33N 37°04' E 025°20'1211.9
2014-Sep-16 06:33N 36°53' E 025°28'6 6.1
2014-Sep-16 05:33N 36°55' E 025°35'10 9.8
2014-Sep-16 04:33N 36°52' E 025°46'5 0.4
2014-Sep-15 17:13N 36°50' E 025°52'5 7.0
2014-Sep-15 16:33N 36°53' E 025°56'8 8.2
2014-Sep-15 15:33N 37°00' E 025°52'6 5.8
2014-Sep-15 14:33N 37°03' E 025°45'1010.1
2014-Sep-15 13:33N 36°56' E 025°36'7 7.4
2014-Sep-15 12:33N 36°52' E 025°28'1211.7
2014-Sep-15 11:33N 37°02' E 025°21'5 4.5
2014-Sep-15 10:33N 37°06' E 025°22'0 0.0
2014-Sep-15 09:33N 37°06' E 025°22'7 7.4
2014-Sep-15 08:33N 36°59' E 025°23'9 9.3
2014-Sep-15 07:33N 36°52' E 025°31'6 5.7
2014-Sep-15 06:33N 36°56' E 025°36'1212.1
2014-Sep-15 05:33N 37°05' E 025°46'8 7.8
2014-Sep-15 04:33N 36°59' E 025°54'7 7.0
2014-Sep-15 03:33N 36°52' E 025°54'3 0.5
2014-Sep-14 20:24N 36°50' E 025°52'0 0.0
2014-Sep-14 19:31N 36°50' E 025°52'1 0.1
2014-Sep-14 13:33N 36°50' E 025°51'1211.7
2014-Sep-14 12:33N 36°51' E 025°37'1211.7
2014-Sep-14 11:33N 36°48' E 025°23'7 7.1
2014-Sep-14 10:33N 36°43' E 025°16'1110.5
2014-Sep-14 09:33N 36°33' E 025°20'1111.1
2014-Sep-14 08:33N 36°23' E 025°26'8 8.2
2014-Sep-14 07:33N 36°31' E 025°24'1212.1
2014-Sep-14 06:33N 36°41' E 025°34'1212.1
2014-Sep-14 05:33N 36°49' E 025°45'6 2.6
2014-Sep-14 03:20N 36°50' E 025°52'0 0.0
2014-Sep-13 19:05N 36°50' E 025°52'0 0.3
2014-Sep-13 17:33N 36°50' E 025°51'7 6.8
2014-Sep-13 16:33N 36°55' E 025°57'1212.3
2014-Sep-13 15:33N 37°05' E 025°48'6 6.0
2014-Sep-13 14:33N 37°01' E 025°43'9 9.4
2014-Sep-13 13:33N 36°55' E 025°34'5 5.0
2014-Sep-13 12:33N 36°53' E 025°28'1212.1
2014-Sep-13 11:33N 37°03' E 025°20'3 3.3
2014-Sep-13 10:33N 37°06' E 025°22'0 0.0
2014-Sep-13 09:33N 37°06' E 025°22'8 8.3
2014-Sep-13 08:33N 36°58' E 025°23'8 8.3
2014-Sep-13 07:33N 36°52' E 025°31'8 7.7
2014-Sep-13 06:33N 36°57' E 025°38'1211.9
2014-Sep-13 05:33N 37°06' E 025°48'10 9.8
2014-Sep-13 04:33N 36°58' E 025°55'6 5.6
2014-Sep-13 03:33N 36°52' E 025°54'3 0.5
2014-Sep-12 21:29N 36°50' E 025°52'0 0.0
2014-Sep-12 19:15N 36°50' E 025°52'0 0.0
2014-Sep-12 18:27N 36°50' E 025°52'0 0.0
2014-Sep-12 17:29N 36°50' E 025°52'5 1.6
2014-Sep-12 14:33N 36°52' E 025°46'1010.2
2014-Sep-12 13:33N 36°55' E 025°34'6 5.5
2014-Sep-12 12:33N 36°52' E 025°28'1212.0
2014-Sep-12 11:33N 37°03' E 025°21'4 4.0
2014-Sep-12 10:33N 37°06' E 025°22'0 0.0
2014-Sep-12 09:33N 37°06' E 025°22'0 0.0
2014-Sep-12 08:33N 37°06' E 025°22'3 2.7
2014-Sep-12 07:33N 37°05' E 025°20'1212.0
2014-Sep-12 06:33N 36°54' E 025°27'6 5.8
2014-Sep-12 05:33N 36°55' E 025°34'9 9.4
2014-Sep-12 04:33N 36°52' E 025°45'6 5.7
2014-Sep-12 03:32N 36°50' E 025°52'0 0.0
2014-Sep-11 22:31N 36°50' E 025°52'0 0.0
2014-Sep-11 18:28N 36°50' E 025°52'0 0.0
2014-Sep-11 17:07N 36°50' E 025°52'3 1.2
2014-Sep-11 14:33N 36°51' E 025°48'1111.0
2014-Sep-11 13:33N 36°56' E 025°36'7 7.5
2014-Sep-11 12:33N 36°52' E 025°28'1111.0
2014-Sep-11 11:33N 37°01' E 025°21'5 5.2
2014-Sep-11 10:33N 37°06' E 025°22'0 0.0
2014-Sep-11 09:33N 37°06' E 025°22'0 0.0
2014-Sep-11 08:33N 37°06' E 025°22'4 4.0
2014-Sep-11 07:33N 37°03' E 025°21'1211.8
2014-Sep-11 06:33N 36°53' E 025°28'7 6.5
2014-Sep-11 05:33N 36°56' E 025°36'10 9.7
2014-Sep-11 04:33N 36°52' E 025°47'5 2.3
2014-Sep-11 02:32N 36°50' E 025°52'0 0.0
2014-Sep-11 00:22N 36°50' E 025°52'0 0.0
2014-Sep-10 23:25N 36°50' E 025°52'0 0.0
2014-Sep-10 22:13N 36°50' E 025°52'0 0.0
2014-Sep-10 21:33N 36°50' E 025°52'0 0.0
2014-Sep-10 20:33N 36°50' E 025°52'0 0.0
2014-Sep-10 19:33N 36°50' E 025°52'0 0.0
2014-Sep-10 18:17N 36°50' E 025°52'0 0.0
2014-Sep-10 17:16N 36°50' E 025°52'6 7.7
2014-Sep-10 16:32N 36°53' E 025°57'9 8.9
2014-Sep-10 15:33N 37°01' E 025°51'5 5.0
2014-Sep-10 14:33N 37°03' E 025°45'1010.2
2014-Sep-10 13:33N 36°56' E 025°36'7 7.4
2014-Sep-10 12:33N 36°52' E 025°28'1111.0
2014-Sep-10 11:33N 37°01' E 025°21'5 5.1
2014-Sep-10 10:33N 37°06' E 025°22'0 0.0
2014-Sep-10 09:33N 37°06' E 025°22'5 4.7
2014-Sep-10 08:32N 37°02' E 025°21'1210.4
2014-Sep-10 07:22N 36°52' E 025°30'6 6.8
2014-Sep-10 06:29N 36°56' E 025°36'1112.3
2014-Sep-10 05:33N 37°04' E 025°46'8 7.9
2014-Sep-10 04:33N 36°59' E 025°54'7 7.1
2014-Sep-10 03:33N 36°52' E 025°54'5 0.4
2014-Sep-09 14:33N 36°51' E 025°47'1010.3
2014-Sep-09 13:33N 36°56' E 025°36'7 7.4
2014-Sep-09 12:33N 36°52' E 025°28'1111.3
2014-Sep-09 11:33N 37°02' E 025°21'5 4.9
2014-Sep-09 10:33N 37°06' E 025°22'0 0.0
2014-Sep-09 09:33N 37°06' E 025°22'0 0.0
2014-Sep-09 08:33N 37°06' E 025°22'  

Dump ship's entire track history